Time;durP1;ratioP1;P1;durP2;ratioP2;P2;SDS_P1;SDS_P2;PMS_P1;PMS_P2;Temp;Humidity;BMP_temperature;BMP_pressure;BME280_temperature;BME280_humidity;BME280_pressure;Samples;Min_cycle;Max_cycle;Signal;HPM_P1;HPM_P2
2023/03/24 00:00:00;;;;;;;11.40;7.70;;;;;;;9.20;93.29;63906.50;4993517;28;20258;-57
2023/03/24 00:02:27;;;;;;;12.37;8.00;;;;;;;9.18;93.57;63904.31;4993193;28;20576;-64
2023/03/24 00:04:57;;;;;;;13.93;8.13;;;;;;;9.14;94.19;63897.41;4993311;28;20208;-55
2023/03/24 00:07:23;;;;;;;9.37;6.77;;;;;;;9.26;93.02;63913.06;4993650;28;20299;-56
2023/03/24 00:09:48;;;;;;;8.97;6.57;;;;;;;9.23;93.32;63907.28;4993293;28;20219;-56
2023/03/24 00:12:17;;;;;;;14.17;7.90;;;;;;;9.28;93.07;63915.25;4993357;28;20199;-57
2023/03/24 00:14:46;;;;;;;10.23;7.30;;;;;;;9.33;92.82;63918.19;4993447;28;20230;-55
2023/03/24 00:17:18;;;;;;;10.40;7.47;;;;;;;9.32;92.29;63917.66;4975681;28;20199;-55
2023/03/24 00:19:44;;;;;;;10.17;7.80;;;;;;;9.47;90.82;63935.47;4993547;28;20339;-54
2023/03/24 00:22:13;;;;;;;10.97;7.23;;;;;;;9.50;91.27;63936.78;4992906;28;20700;-56
2023/03/24 00:24:46;;;;;;;10.57;7.30;;;;;;;9.44;90.87;63932.19;4993013;28;20207;-56
2023/03/24 00:27:14;;;;;;;13.93;7.43;;;;;;;9.16;92.99;63902.13;4993135;28;20290;-57
2023/03/24 00:29:45;;;;;;;11.83;6.60;;;;;;;9.09;93.09;63891.97;4992802;28;20305;-56
2023/03/24 00:32:11;;;;;;;16.47;7.67;;;;;;;9.08;93.45;63891.41;4993002;28;20188;-53
2023/03/24 00:34:37;;;;;;;14.90;8.37;;;;;;;9.00;93.66;63882.13;4992653;28;20224;-56
2023/03/24 00:37:05;;;;;;;10.67;7.30;;;;;;;9.04;93.45;63886.50;4992627;28;20195;-56
2023/03/24 00:39:31;;;;;;;13.23;7.60;;;;;;;9.21;91.59;63905.63;4992320;28;20354;-59
2023/03/24 00:41:57;;;;;;;11.37;7.40;;;;;;;9.17;91.92;63900.72;4992555;28;20697;-53
2023/03/24 00:44:23;;;;;;;16.83;8.80;;;;;;;9.00;92.30;63884.63;4975186;28;20261;-56
2023/03/24 00:46:56;;;;;;;16.87;9.77;;;;;;;8.95;92.31;63876.66;4992435;28;20274;-55
2023/03/24 00:49:43;;;;;;;14.03;8.97;;;;;;;8.89;93.23;63870.66;4992591;28;20307;-54
2023/03/24 00:52:14;;;;;;;15.43;9.60;;;;;;;8.68;93.06;63849.66;4992430;28;20191;-55
2023/03/24 00:54:40;;;;;;;14.73;10.17;;;;;;;8.59;93.17;63837.88;4992717;28;20219;-53
2023/03/24 00:57:07;;;;;;;18.07;9.97;;;;;;;8.58;93.69;63838.75;4992446;28;20206;-54
2023/03/24 00:59:41;;;;;;;18.20;10.90;;;;;;;8.58;94.51;63838.75;4992801;28;20696;-60
2023/03/24 01:02:10;;;;;;;17.63;10.43;;;;;;;8.60;94.41;63838.41;4992496;28;20207;-59
2023/03/24 01:04:39;;;;;;;17.30;10.00;;;;;;;8.59;93.74;63840.38;4992304;28;20307;-55
2023/03/24 01:07:07;;;;;;;15.53;11.43;;;;;;;8.68;92.98;63850.22;4992086;28;20203;-55
2023/03/24 01:09:35;;;;;;;14.90;9.60;;;;;;;8.56;94.05;63836.56;4992425;28;20310;-57
2023/03/24 01:12:02;;;;;;;18.10;10.03;;;;;;;8.70;92.15;63851.84;4992051;28;20206;-55
2023/03/24 01:14:29;;;;;;;17.53;10.83;;;;;;;8.53;93.94;63830.75;4991938;28;20289;-53
2023/03/24 01:16:54;;;;;;;15.27;9.73;;;;;;;8.51;92.04;63831.09;4991933;28;20250;-55
2023/03/24 01:19:20;;;;;;;15.60;9.73;;;;;;;8.48;92.46;63828.91;4991857;28;20287;-54
2023/03/24 01:21:47;;;;;;;15.80;9.77;;;;;;;8.53;92.00;63830.75;4991601;28;20314;-53
2023/03/24 01:24:12;;;;;;;15.27;8.70;;;;;;;8.64;90.32;63842.78;4991664;28;20222;-54
2023/03/24 01:26:38;;;;;;;13.83;8.27;;;;;;;8.69;89.89;63853.25;4991882;28;20191;-56
2023/03/24 01:29:04;;;;;;;17.00;9.20;;;;;;;8.67;89.45;63849.13;4991939;28;20219;-56
2023/03/24 01:31:30;;;;;;;13.47;9.10;;;;;;;8.59;90.26;63837.88;4991684;28;20207;-55
2023/03/24 01:33:55;;;;;;;14.03;8.57;;;;;;;8.68;89.78;63852.19;4991652;28;20277;-56
2023/03/24 01:36:21;;;;;;;13.77;8.53;;;;;;;8.45;91.24;63825.63;4991682;28;20665;-57
2023/03/24 01:38:46;;;;;;;16.13;9.23;;;;;;;8.56;90.53;63834.06;4973944;28;20684;-54
2023/03/24 01:41:12;;;;;;;14.17;8.90;;;;;;;8.52;89.96;63832.19;4991582;28;20783;-55
2023/03/24 01:43:37;;;;;;;14.03;8.17;;;;;;;8.41;91.08;63821.28;4991756;28;20669;-56
2023/03/24 01:46:18;;;;;;;14.17;9.10;;;;;;;8.51;90.15;63831.66;4991830;28;20203;-53
2023/03/24 01:48:58;;;;;;;14.47;8.40;;;;;;;8.54;90.36;63832.41;4991575;28;20598;-54
2023/03/24 01:51:35;;;;;;;13.67;8.60;;;;;;;8.46;91.67;63829.22;4990338;28;20198;-53
2023/03/24 01:54:16;;;;;;;13.37;8.47;;;;;;;8.38;91.72;63817.97;4991590;28;20227;-53
2023/03/24 01:56:46;;;;;;;13.63;8.40;;;;;;;8.27;91.72;63805.97;4991365;28;20198;-53
2023/03/24 01:59:19;;;;;;;10.33;8.07;;;;;;;8.12;92.36;63789.56;4991304;28;20216;-55
2023/03/24 02:01:45;;;;;;;12.93;7.90;;;;;;;8.33;91.47;63807.50;4991234;28;20226;-53
2023/03/24 02:04:11;;;;;;;13.73;7.83;;;;;;;8.33;91.59;63812.53;4991454;28;20216;-57
2023/03/24 02:06:42;;;;;;;13.37;8.47;;;;;;;8.37;92.70;63816.34;4991517;28;20184;-56
2023/03/24 02:09:09;;;;;;;16.97;8.13;;;;;;;8.33;92.65;63812.53;4973847;28;20597;-53
2023/03/24 02:11:36;;;;;;;13.73;8.27;;;;;;;8.34;91.76;63810.56;4991283;28;20333;-54
2023/03/24 02:14:02;;;;;;;11.77;8.00;;;;;;;8.36;92.01;63817.78;4974007;28;20297;-58
2023/03/24 02:16:48;;;;;;;12.50;8.17;;;;;;;8.50;91.16;63833.06;4991244;28;20206;-53
2023/03/24 02:19:37;;;;;;;12.10;8.00;;;;;;;8.27;91.65;63808.50;4991066;28;20215;-57
2023/03/24 02:22:21;;;;;;;14.53;7.43;;;;;;;8.23;91.99;63801.59;4991160;28;20593;-56
2023/03/24 02:25:15;;;;;;;11.83;8.17;;;;;;;8.28;92.68;63806.53;4973108;28;20587;-58
2023/03/24 02:27:52;;;;;;;13.87;8.20;;;;;;;8.20;91.81;63798.31;4990993;28;20374;-56
2023/03/24 02:30:49;;;;;;;15.43;8.30;;;;;;;8.16;93.08;63793.94;4991369;28;20223;-57
2023/03/24 02:33:23;;;;;;;10.97;7.30;;;;;;;8.15;93.21;63792.31;4991099;28;20191;-56
2023/03/24 02:36:17;;;;;;;12.60;8.53;;;;;;;8.21;92.31;63799.41;4991020;28;20281;-56
2023/03/24 02:38:56;;;;;;;12.97;7.80;;;;;;;8.19;93.68;63797.22;4990969;28;20338;-54
2023/03/24 02:41:28;;;;;;;14.53;8.33;;;;;;;8.26;92.79;63804.34;4973341;28;20215;-54
2023/03/24 02:44:20;;;;;;;14.70;8.67;;;;;;;8.16;92.34;63793.94;4990667;28;20607;-55
2023/03/24 02:47:15;;;;;;;12.40;8.07;;;;;;;8.14;93.33;63791.75;4990824;28;20202;-59
2023/03/24 02:50:04;;;;;;;15.77;8.10;;;;;;;8.13;93.89;63790.69;4990712;28;20250;-53
2023/03/24 02:52:45;;;;;;;15.47;8.50;;;;;;;8.31;91.28;63807.84;4990551;28;20216;-54
2023/03/24 02:55:25;;;;;;;11.20;7.83;;;;;;;8.14;91.85;63791.75;4990824;28;20215;-56
2023/03/24 02:58:04;;;;;;;11.67;7.70;;;;;;;7.93;92.81;63768.28;4990608;28;20218;-56
2023/03/24 03:00:46;;;;;;;11.17;7.27;;;;;;;7.69;93.19;63742.66;4990483;28;20223;-60
2023/03/24 03:03:22;;;;;;;14.43;7.40;;;;;;;7.67;93.00;63740.47;4991586;28;20218;-56
2023/03/24 03:05:57;;;;;;;13.03;7.70;;;;;;;7.53;94.05;63723.22;4993820;28;20715;-53
2023/03/24 03:08:26;;;;;;;12.70;7.23;;;;;;;7.49;95.45;63720.81;4993688;28;20733;-53
2023/03/24 03:10:53;;;;;;;11.17;7.13;;;;;;;7.51;94.77;63723.00;4993689;28;20662;-53
2023/03/24 03:13:37;;;;;;;10.40;7.30;;;;;;;7.58;94.46;63731.19;4993423;28;20234;-54
2023/03/24 03:16:07;;;;;;;13.03;7.20;;;;;;;7.63;93.66;63736.09;4993873;28;20187;-54
2023/03/24 03:18:42;;;;;;;11.60;7.23;;;;;;;7.58;95.15;63730.63;4993941;28;20198;-52
2023/03/24 03:21:13;;;;;;;10.40;6.93;;;;;;;7.59;94.10;63729.75;4993556;28;20377;-54
2023/03/24 03:23:53;;;;;;;10.63;7.40;;;;;;;7.57;94.02;63730.09;4993335;28;20270;-54
2023/03/24 03:26:22;;;;;;;10.17;6.73;;;;;;;7.57;93.96;63729.56;4992914;28;20188;-54
2023/03/24 03:28:56;;;;;;;11.77;7.60;;;;;;;7.68;93.00;63741.53;4975512;28;20199;-54
2023/03/24 03:31:28;;;;;;;10.73;7.30;;;;;;;8.03;92.02;63781.72;4993295;28;20191;-53
2023/03/24 03:34:21;;;;;;;11.90;7.70;;;;;;;7.93;91.32;63766.34;4993161;28;20713;-53
2023/03/24 03:36:57;;;;;;;17.60;8.33;;;;;;;7.50;92.01;63721.91;4993346;28;20195;-54
2023/03/24 03:39:28;;;;;;;9.03;6.27;;;;;;;7.17;92.05;63681.44;4993948;28;20215;-54
2023/03/24 03:41:55;;;;;;;9.07;5.77;;;;;;;6.94;93.23;63661.38;4993271;28;20312;-54
2023/03/24 03:44:21;;;;;;;8.53;5.67;;;;;;;6.76;93.15;63642.28;4993726;28;20294;-56
2023/03/24 03:46:46;;;;;;;6.67;5.33;;;;;;;6.68;92.99;63633.56;4993456;28;20279;-54
2023/03/24 03:49:11;;;;;;;10.60;6.00;;;;;;;6.50;94.97;63616.44;4976086;28;20218;-59
2023/03/24 03:51:37;;;;;;;6.93;5.17;;;;;;;6.44;95.81;63606.88;4993270;28;20187;-57
2023/03/24 03:54:06;;;;;;;7.83;5.53;;;;;;;6.27;97.06;63586.38;4993338;28;20210;-57
2023/03/24 03:56:33;;;;;;;9.03;5.63;;;;;;;6.19;98.54;63577.66;4993167;28;20183;-59
2023/03/24 03:58:59;;;;;;;8.07;5.23;;;;;;;6.07;99.30;63569.59;4993370;28;20223;-57
2023/03/24 04:01:28;;;;;;;9.60;5.80;;;;;;;6.03;99.99;63562.72;4992961;28;20221;-54
2023/03/24 04:04:03;;;;;;;9.17;5.80;;;;;;;6.01;100.00;63558.03;4993184;28;20217;-55
2023/03/24 04:06:34;;;;;;;7.70;5.53;;;;;;;5.96;100.00;63557.59;4992890;28;20252;-54
2023/03/24 04:09:06;;;;;;;9.43;5.43;;;;;;;5.96;100.00;63555.09;4992895;28;20309;-57
2023/03/24 04:11:40;;;;;;;8.17;5.70;;;;;;;5.90;100.00;63549.09;4993045;28;20269;-57
2023/03/24 04:14:18;;;;;;;7.17;5.57;;;;;;;5.85;100.00;63540.63;4992060;28;20602;-58
2023/03/24 04:16:58;;;;;;;10.33;5.50;;;;;;;5.64;100.00;63520.22;4992863;28;20190;-60
2023/03/24 04:19:48;;;;;;;7.77;5.83;;;;;;;5.48;100.00;63497.78;4992770;28;20225;-56
2023/03/24 04:22:19;;;;;;;12.80;6.37;;;;;;;5.47;100.00;63501.72;4993141;28;20253;-55
2023/03/24 04:24:53;;;;;;;9.73;6.40;;;;;;;5.49;100.00;63504.44;4992732;28;20236;-53
2023/03/24 04:28:03;;;;;;;10.30;6.50;;;;;;;5.44;100.00;63498.97;4992670;28;20205;-55
2023/03/24 04:30:42;;;;;;;7.50;5.60;;;;;;;5.35;100.00;63488.66;4894928;29;20226;-54
2023/03/24 04:33:16;;;;;;;7.47;5.70;;;;;;;5.31;100.00;63484.84;4879166;29;20212;-58
2023/03/24 04:35:48;;;;;;;9.93;6.20;;;;;;;5.44;100.00;63496.50;4954589;28;20226;-58
2023/03/24 04:38:22;;;;;;;12.37;7.30;;;;;;;5.51;100.00;63503.56;4992499;28;20195;-58
2023/03/24 04:40:51;;;;;;;11.17;6.83;;;;;;;5.61;100.00;63516.97;4992263;28;20226;-58
2023/03/24 04:43:20;;;;;;;10.83;8.03;;;;;;;5.55;100.00;63508.47;4992135;28;20198;-57
2023/03/24 04:45:48;;;;;;;16.17;9.73;;;;;;;5.62;100.00;63523.03;4974820;28;20772;-62
2023/03/24 04:48:16;;;;;;;9.30;7.30;;;;;;;5.69;100.00;63526.22;4992117;28;20194;-53
2023/03/24 04:50:49;;;;;;;8.80;6.53;;;;;;;5.78;100.00;63537.97;4992272;28;20221;-56
2023/03/24 04:53:15;;;;;;;12.50;6.83;;;;;;;5.63;100.00;63516.63;4992253;28;20198;-57
2023/03/24 04:55:49;;;;;;;9.17;6.17;;;;;;;5.60;100.00;63515.84;4974780;28;20222;-54
2023/03/24 04:58:16;;;;;;;13.07;7.60;;;;;;;5.71;100.00;63525.91;4992346;28;20232;-54
2023/03/24 05:00:42;;;;;;;12.17;8.30;;;;;;;5.69;100.00;63528.72;4992072;28;20321;-54
2023/03/24 05:03:12;;;;;;;9.73;6.60;;;;;;;5.83;100.00;63541.50;4992175;28;20192;-54
2023/03/24 05:05:42;;;;;;;9.27;6.70;;;;;;;5.82;100.00;63540.38;4992046;28;20230;-53
2023/03/24 05:08:08;;;;;;;12.03;6.77;;;;;;;5.97;100.00;63558.69;4992184;28;20225;-53
2023/03/24 05:10:34;;;;;;;13.37;7.27;;;;;;;6.14;100.00;63577.19;4992071;28;20211;-53
2023/03/24 05:13:00;;;;;;;8.60;6.17;;;;;;;6.22;100.00;63582.88;4992291;28;20684;-53
2023/03/24 05:15:25;;;;;;;15.57;7.70;;;;;;;6.15;100.00;63575.25;4992408;28;20320;-53
2023/03/24 05:17:51;;;;;;;13.27;7.07;;;;;;;6.24;100.00;63582.56;4992147;28;20206;-54
2023/03/24 05:20:17;;;;;;;12.17;7.70;;;;;;;6.30;100.00;63591.59;4992127;28;20211;-55
2023/03/24 05:22:43;;;;;;;8.37;6.23;;;;;;;6.33;100.00;63595.41;4992020;28;20247;-53
2023/03/24 05:25:09;;;;;;;10.13;6.30;;;;;;;6.37;100.00;63599.78;4974729;28;20309;-57
2023/03/24 05:27:35;;;;;;;10.77;6.80;;;;;;;6.36;100.00;63598.66;4991956;28;20205;-54
2023/03/24 05:30:01;;;;;;;8.87;6.40;;;;;;;6.42;100.00;63602.19;4992473;28;20223;-61
2023/03/24 05:32:27;;;;;;;10.93;6.73;;;;;;;6.39;99.75;63601.94;4974604;28;20196;-65
2023/03/24 05:34:52;;;;;;;9.00;6.40;;;;;;;6.82;100.00;63647.72;4991627;28;20613;-57
2023/03/24 05:37:18;;;;;;;13.70;6.20;;;;;;;6.81;100.00;63649.16;4991845;28;20666;-57
2023/03/24 05:39:43;;;;;;;9.50;6.40;;;;;;;6.96;100.00;63663.56;4992012;28;20568;-54
2023/03/24 05:42:10;;;;;;;9.60;6.33;;;;;;;7.14;97.41;63682.63;4991849;28;20665;-55
2023/03/24 05:44:35;;;;;;;9.03;7.23;;;;;;;7.18;96.14;63687.00;4974363;28;20274;-55
2023/03/24 05:47:02;;;;;;;10.77;6.90;;;;;;;7.50;95.51;63721.91;4991163;28;20192;-54
2023/03/24 05:49:27;;;;;;;11.10;6.30;;;;;;;7.45;94.63;63714.47;4991667;28;20215;-55
2023/03/24 05:51:53;;;;;;;10.60;6.57;;;;;;;7.47;95.07;63713.63;4991603;28;20238;-55
2023/03/24 05:54:18;;;;;;;13.03;6.77;;;;;;;7.53;93.86;63725.72;4991460;28;20231;-54
2023/03/24 05:56:44;;;;;;;11.27;6.93;;;;;;;7.45;94.32;63718.97;4991497;28;20191;-55
2023/03/24 05:59:10;;;;;;;14.87;7.33;;;;;;;7.45;95.42;63713.94;4991754;28;20215;-55
2023/03/24 06:01:36;;;;;;;13.03;7.27;;;;;;;7.70;94.83;63746.22;4991128;28;20219;-54
2023/03/24 06:04:01;;;;;;;11.57;7.50;;;;;;;7.93;94.13;63768.28;4991521;28;20234;-57
2023/03/24 06:06:27;;;;;;;15.27;7.47;;;;;;;8.27;91.52;63805.97;4991334;28;20187;-54
2023/03/24 06:08:57;;;;;;;20.33;8.90;;;;;;;8.30;91.55;63809.25;4973571;28;20221;-57
2023/03/24 06:11:22;;;;;;;12.93;8.60;;;;;;;8.40;91.96;63820.16;4991083;28;20666;-58
2023/03/24 06:13:48;;;;;;;14.47;9.87;;;;;;;8.63;92.45;63844.19;4991257;28;20195;-56
2023/03/24 06:16:14;;;;;;;21.60;11.70;;;;;;;8.83;91.52;63863.53;4973754;28;20282;-56
2023/03/24 06:18:41;;;;;;;21.27;12.43;;;;;;;8.73;93.60;63853.16;4991242;28;20266;-54
2023/03/24 06:21:07;;;;;;;23.00;12.20;;;;;;;9.15;92.13;63901.03;4991256;28;20215;-55
2023/03/24 06:23:33;;;;;;;22.63;14.13;;;;;;;8.88;92.78;63874.03;4991308;28;20194;-54
2023/03/24 06:26:00;;;;;;;25.43;14.57;;;;;;;8.74;93.66;63856.78;4991250;28;20191;-56
2023/03/24 06:28:40;;;;;;;23.57;13.83;;;;;;;8.58;95.03;63838.75;4991204;28;20286;-57
2023/03/24 06:31:13;;;;;;;29.73;16.33;;;;;;;8.54;96.08;63834.94;4973638;28;20203;-54
2023/03/24 06:33:41;;;;;;;23.07;15.07;;;;;;;8.63;97.00;63842.25;4990891;28;20214;-53
2023/03/24 06:36:08;;;;;;;27.37;14.67;;;;;;;8.84;95.32;63867.16;4991056;28;20259;-54
2023/03/24 06:38:34;;;;;;;22.63;15.10;;;;;;;9.07;94.46;63892.28;4992753;28;20191;-56
2023/03/24 06:41:00;;;;;;;24.27;15.90;;;;;;;8.78;97.07;63860.59;4976967;28;20215;-57
2023/03/24 06:43:26;;;;;;;27.37;15.83;;;;;;;8.92;97.57;63875.91;4994210;28;20202;-53
2023/03/24 06:45:51;;;;;;;27.37;15.33;;;;;;;9.07;96.01;63892.28;4976924;28;20298;-56
2023/03/24 06:48:17;;;;;;;32.40;16.23;;;;;;;9.17;96.43;63900.72;4994088;28;20230;-59
2023/03/24 06:50:43;;;;;;;26.83;17.03;;;;;;;9.29;95.48;63916.34;4994073;28;20246;-56
2023/03/24 06:53:09;;;;;;;23.13;15.53;;;;;;;9.93;100.00;63985.78;4994039;28;20717;-58
2023/03/24 06:55:34;;;;;;;25.53;14.33;;;;;;;11.63;100.00;64168.84;4994034;28;20305;-56
2023/03/24 06:58:00;;;;;;;17.03;11.70;;;;;;;12.93;96.23;64307.25;4994050;28;20203;-56
2023/03/24 07:00:27;;;;;;;19.70;12.00;;;;;;;13.88;88.19;64410.97;4976398;28;20226;-54
2023/03/24 07:02:54;;;;;;;17.87;11.57;;;;;;;13.51;75.09;64373.44;4994198;28;20180;-53
2023/03/24 07:05:21;;;;;;;19.00;10.77;;;;;;;13.24;72.67;64344.34;4994264;28;20207;-59
2023/03/24 07:07:46;;;;;;;18.70;10.30;;;;;;;13.65;75.81;64388.81;4993785;28;20638;-56
2023/03/24 07:10:12;;;;;;;17.75;9.75;;;;;;;14.48;73.77;64479.44;4976422;28;20214;-55
2023/03/24 07:12:39;;;;;;;15.32;8.88;;;;;;;15.18;71.66;64555.84;4993841;28;20180;-56
2023/03/24 07:15:07;;;;;;;17.80;12.00;;;;;;;14.98;63.86;64531.31;4994042;28;20231;-54
2023/03/24 07:17:32;;;;;;;15.50;9.68;;;;;;;14.69;68.48;64502.50;4993991;28;20245;-58
2023/03/24 07:19:58;;;;;;;16.05;10.55;;;;;;;15.11;66.33;64545.59;4993826;28;20208;-58
2023/03/24 07:22:24;;;;;;;16.42;10.45;;;;;;;14.60;67.61;64489.53;4993813;28;20217;-54
2023/03/24 07:24:49;;;;;;;18.65;13.20;;;;;;;14.35;64.59;64462.63;4993728;28;20211;-56
2023/03/24 07:27:15;;;;;;;20.08;12.73;;;;;;;13.90;63.96;64413.72;4993858;28;20665;-57
2023/03/24 07:29:40;;;;;;;17.08;12.25;;;;;;;13.37;67.11;64358.59;4992516;28;20215;-56
2023/03/24 07:32:06;;;;;;;18.70;12.48;;;;;;;13.07;69.18;64323.16;4993709;28;20282;-56
2023/03/24 07:34:33;;;;;;;21.52;13.27;;;;;;;12.94;69.64;64311.41;4993588;28;20258;-54
2023/03/24 07:36:58;;;;;;;21.33;14.00;;;;;;;12.69;70.29;64281.44;4993783;28;20187;-58
2023/03/24 07:39:24;;;;;;;18.27;12.35;;;;;;;12.63;72.25;64279.91;4993734;28;20656;-55
2023/03/24 07:41:50;;;;;;;20.45;13.25;;;;;;;12.65;71.79;64282.13;4993451;28;20222;-54
2023/03/24 07:44:15;;;;;;;27.70;13.70;;;;;;;12.76;69.81;64291.66;4993348;28;20212;-59
2023/03/24 07:46:41;;;;;;;21.90;12.30;;;;;;;12.68;71.49;64282.34;4993406;28;20195;-54
2023/03/24 07:49:06;;;;;;;24.07;13.70;;;;;;;12.28;72.82;64239.03;4992482;28;20703;-59
2023/03/24 07:51:32;;;;;;;20.70;12.97;;;;;;;12.54;73.19;64268.06;4993218;28;20207;-55
2023/03/24 07:53:58;;;;;;;21.67;13.93;;;;;;;12.61;72.72;64275.75;4993542;28;20211;-55
2023/03/24 07:56:23;;;;;;;21.07;13.57;;;;;;;12.57;73.76;64270.81;4993328;28;20230;-56
2023/03/24 07:58:49;;;;;;;20.77;13.30;;;;;;;12.50;72.63;64263.69;4993231;28;20287;-60
2023/03/24 08:01:15;;;;;;;24.80;14.63;;;;;;;12.37;73.37;64251.97;4993012;28;20231;-56
2023/03/24 08:03:40;;;;;;;20.17;14.27;;;;;;;12.33;73.67;64245.03;4992886;28;20227;-55
2023/03/24 08:06:08;;;;;;;21.75;14.02;;;;;;;12.38;74.37;64250.53;4993241;28;20192;-54
2023/03/24 08:08:35;;;;;;;20.80;12.80;;;;;;;12.77;73.43;64295.28;4992876;28;20281;-58
2023/03/24 08:11:00;;;;;;;27.03;14.37;;;;;;;12.77;72.28;64295.28;4993066;28;20206;-57
2023/03/24 08:13:26;;;;;;;22.03;14.50;;;;;;;12.94;70.75;64311.41;4993050;28;20196;-54
2023/03/24 08:15:52;;;;;;;18.45;13.68;;;;;;;13.14;71.70;64330.84;4993050;28;20735;-56
2023/03/24 08:18:20;;;;;;;17.57;11.97;;;;;;;13.12;71.01;64331.19;4992986;28;20717;-53
2023/03/24 08:20:46;;;;;;;19.07;11.87;;;;;;;13.25;68.55;64344.91;4992830;28;20215;-59
2023/03/24 08:23:11;;;;;;;24.52;11.93;;;;;;;13.45;68.60;64369.91;4975814;28;20183;-59
2023/03/24 08:25:37;;;;;;;23.17;12.47;;;;;;;13.35;69.13;64355.88;4992735;28;20233;-57
2023/03/24 08:28:03;;;;;;;16.87;11.13;;;;;;;13.66;68.96;64387.38;4992740;28;20183;-56
2023/03/24 08:30:29;;;;;;;20.20;11.90;;;;;;;13.79;67.93;64401.09;4992650;28;20215;-57
2023/03/24 08:32:58;;;;;;;21.93;13.50;;;;;;;14.03;66.72;64429.97;4992614;28;20195;-54
2023/03/24 08:35:30;;;;;;;18.67;12.13;;;;;;;14.37;67.73;64466.78;4992930;28;20298;-56
2023/03/24 08:37:58;;;;;;;20.17;12.43;;;;;;;14.83;67.16;64514.81;4992736;28;20235;-60
2023/03/24 08:40:25;;;;;;;16.27;12.37;;;;;;;15.09;62.80;64543.38;4974932;28;20609;-58
2023/03/24 08:42:53;;;;;;;23.80;12.55;;;;;;;15.31;60.64;64569.59;4992295;28;20219;-55
2023/03/24 08:45:22;;;;;;;21.70;13.55;;;;;;;15.09;61.70;64546.47;4992316;28;20226;-56
2023/03/24 08:47:49;;;;;;;20.45;12.77;;;;;;;15.19;61.03;64554.38;4992361;28;20187;-55
2023/03/24 08:50:15;;;;;;;23.08;13.23;;;;;;;15.48;60.48;64583.22;4974889;28;20200;-56
2023/03/24 08:52:40;;;;;;;24.50;12.50;;;;;;;15.72;60.28;64612.69;4992137;28;20201;-57
2023/03/24 08:55:08;;;;;;;22.45;12.95;;;;;;;16.17;57.68;64661.66;4992737;28;20215;-56
2023/03/24 08:57:34;;;;;;;18.65;12.63;;;;;;;16.58;55.73;64709.34;4992062;28;20223;-55
2023/03/24 09:00:00;;;;;;;23.20;12.43;;;;;;;16.54;56.35;64702.41;4992401;28;20643;-55
2023/03/24 09:02:26;;;;;;;19.73;11.60;;;;;;;16.95;55.57;64747.00;4992007;28;20297;-54
2023/03/24 09:04:54;;;;;;;18.45;12.00;;;;;;;17.43;54.51;64802.44;4992472;28;20207;-56
2023/03/24 09:07:20;;;;;;;25.13;12.63;;;;;;;17.40;52.39;64796.03;4992214;28;20739;-56
2023/03/24 09:09:46;;;;;;;19.77;11.75;;;;;;;17.68;51.68;64826.91;4992001;28;20297;-56
2023/03/24 09:12:11;;;;;;;15.43;11.00;;;;;;;18.05;52.47;64867.72;4991940;28;20192;-55
2023/03/24 09:14:37;;;;;;;19.75;12.65;;;;;;;18.37;51.76;64903.00;4991892;28;20215;-57
2023/03/24 09:17:02;;;;;;;21.98;12.63;;;;;;;18.72;51.04;64938.53;4974258;28;20191;-57
2023/03/24 09:19:27;;;;;;;20.88;12.60;;;;;;;19.00;49.71;64971.41;4992133;28;20291;-56
2023/03/24 09:21:53;;;;;;;18.02;11.75;;;;;;;18.64;48.10;64931.69;4992037;28;20626;-59
2023/03/24 09:24:18;;;;;;;24.42;13.07;;;;;;;18.58;47.41;64925.63;4974878;28;20246;-58
2023/03/24 09:26:44;;;;;;;16.65;11.82;;;;;;;18.75;47.91;64943.81;4992294;28;20658;-57
2023/03/24 09:29:09;;;;;;;16.50;10.82;;;;;;;19.48;47.36;65026.97;4992278;28;20294;-54
2023/03/24 09:31:35;;;;;;;16.30;11.07;;;;;;;19.50;46.42;65024.06;4992279;28;20540;-56
2023/03/24 09:34:02;;;;;;;15.93;10.60;;;;;;;19.72;45.69;65052.91;4991817;28;20231;-58
2023/03/24 09:36:27;;;;;;;19.55;10.93;;;;;;;19.96;44.66;65077.41;4992142;28;20196;-56
2023/03/24 09:38:53;;;;;;;16.98;11.02;;;;;;;20.01;44.79;65084.97;4991040;28;20221;-54
2023/03/24 09:41:25;;;;;;;14.57;10.82;;;;;;;20.44;44.23;65129.91;4992170;28;20214;-54
2023/03/24 09:44:03;;;;;;;13.23;9.93;;;;;;;20.36;42.89;65120.53;4991896;28;20684;-54
2023/03/24 09:46:45;;;;;;;16.20;11.13;;;;;;;19.38;44.33;65012.81;4991729;28;20193;-56
2023/03/24 09:49:15;;;;;;;15.25;10.05;;;;;;;20.36;44.87;65121.06;4991923;28;20293;-56
2023/03/24 09:51:43;;;;;;;16.02;10.45;;;;;;;21.01;43.48;65192.38;4991583;28;20196;-56
2023/03/24 09:54:26;;;;;;;13.70;10.05;;;;;;;21.11;42.42;65202.91;4991800;28;20211;-55
2023/03/24 09:56:54;;;;;;;18.80;9.65;;;;;;;21.20;41.18;65212.84;4991713;28;20191;-58
2023/03/24 09:59:25;;;;;;;19.52;11.25;;;;;;;21.17;41.22;65209.53;4991460;28;20723;-59
2023/03/24 10:01:51;;;;;;;16.95;9.27;;;;;;;21.42;39.47;65234.63;4991517;28;20688;-56
2023/03/24 10:04:23;;;;;;;19.50;10.32;;;;;;;21.48;40.71;65241.81;4991759;28;20238;-57
2023/03/24 10:06:55;;;;;;;16.27;9.55;;;;;;;21.42;39.20;65237.75;4991525;28;20274;-59
2023/03/24 10:09:28;;;;;;;15.77;9.80;;;;;;;21.50;40.56;65243.47;4974055;28;20235;-57
2023/03/24 10:11:54;;;;;;;12.48;9.23;;;;;;;21.00;39.14;65191.28;4991459;28;20249;-59
2023/03/24 10:14:44;;;;;;;12.05;8.70;;;;;;;20.91;39.79;65181.31;4994192;28;20211;-57
2023/03/24 10:17:40;;;;;;;15.23;8.88;;;;;;;21.74;39.37;65270.56;4994699;28;20210;-54
2023/03/24 10:20:43;;;;;;;14.15;9.48;;;;;;;21.90;38.21;65289.75;4994693;28;20218;-58
2023/03/24 10:23:29;;;;;;;13.93;9.30;;;;;;;22.31;38.42;65335.13;4994882;28;20226;-58
2023/03/24 10:26:33;;;;;;;12.40;7.75;;;;;;;22.34;37.45;65335.88;4994809;28;20286;-55
2023/03/24 10:29:04;;;;;;;15.00;8.82;;;;;;;22.25;38.74;65325.91;4994849;28;20207;-54
2023/03/24 10:31:33;;;;;;;12.23;8.25;;;;;;;22.80;36.94;65388.84;4994481;28;20190;-57
2023/03/24 10:33:59;;;;;;;12.88;8.60;;;;;;;23.24;36.44;65438.13;4994591;28;20273;-54
2023/03/24 10:36:26;;;;;;;13.55;7.53;;;;;;;23.72;35.90;65490.78;4994569;28;20187;-55
2023/03/24 10:38:52;;;;;;;10.15;7.65;;;;;;;23.78;35.51;65494.84;4994219;28;20214;-59
2023/03/24 10:41:21;;;;;;;11.80;8.63;;;;;;;23.32;36.86;65447.03;4994490;28;20306;-58
2023/03/24 10:43:47;;;;;;;16.33;7.38;;;;;;;23.00;35.74;65408.97;4994400;28;20191;-56
2023/03/24 10:46:17;;;;;;;12.50;7.85;;;;;;;23.06;36.41;65415.06;4994135;28;20188;-58
2023/03/24 10:48:47;;;;;;;11.98;8.40;;;;;;;23.29;36.44;65441.09;4994595;28;20200;-56
2023/03/24 10:51:16;;;;;;;11.85;8.50;;;;;;;23.85;35.34;65502.06;4994813;28;20544;-55
2023/03/24 10:53:46;;;;;;;11.73;7.60;;;;;;;24.29;35.63;65550.88;4994554;28;20191;-59
2023/03/24 10:56:15;;;;;;;11.15;7.35;;;;;;;24.47;35.07;65567.69;4994397;28;20222;-60
2023/03/24 10:58:43;;;;;;;12.57;7.72;;;;;;;24.67;34.56;65593.00;4994505;28;20266;-56
2023/03/24 11:01:36;;;;;;;9.15;7.18;;;;;;;24.37;33.75;65559.19;4994272;28;20208;-60
2023/03/24 11:04:06;;;;;;;10.68;7.00;;;;;;;24.63;33.33;65588.56;4991001;28;20227;-58
2023/03/24 11:06:32;;;;;;;10.68;7.75;;;;;;;24.64;33.37;65589.13;4994402;28;20274;-58
2023/03/24 11:09:18;;;;;;;10.05;7.63;;;;;;;24.25;34.51;65549.00;4994110;28;20223;-56
2023/03/24 11:11:43;;;;;;;8.98;7.35;;;;;;;23.78;33.81;65494.84;4994394;28;20708;-60
2023/03/24 11:14:26;;;;;;;8.63;7.63;;;;;;;23.93;34.44;65510.94;4993914;28;20215;-61
2023/03/24 11:17:00;;;;;;;12.30;7.78;;;;;;;23.26;34.81;65440.34;4994048;28;20209;-60
2023/03/24 11:19:26;;;;;;;11.48;7.18;;;;;;;23.92;32.45;65510.38;4994116;28;20714;-60
2023/03/24 11:22:00;;;;;;;12.20;7.10;;;;;;;24.19;31.60;65542.34;4993889;28;20298;-55
2023/03/24 11:24:27;;;;;;;11.65;6.75;;;;;;;24.04;42.03;65523.16;4993966;28;20223;-53
2023/03/24 11:27:00;;;;;;;10.25;6.28;;;;;;;23.66;47.03;65483.56;4993943;28;20187;-55
2023/03/24 11:29:29;;;;;;;10.07;6.82;;;;;;;24.13;43.11;65536.25;4993998;28;20281;-57
2023/03/24 11:32:04;;;;;;;7.72;6.40;;;;;;;23.86;37.28;65503.16;4976467;28;20658;-59
2023/03/24 11:34:40;;;;;;;9.30;6.88;;;;;;;23.00;36.82;65411.56;4994072;28;20234;-55
2023/03/24 11:37:25;;;;;;;9.50;6.38;;;;;;;21.94;38.49;65294.19;4993845;28;20210;-56
2023/03/24 11:40:17;;;;;;;10.95;6.55;;;;;;;21.92;39.09;65289.41;4993996;28;20203;-59